Time;durP1;ratioP1;P1;durP2;ratioP2;P2;SDS_P1;SDS_P2;PMS_P1;PMS_P2;Temp;Humidity;BMP_temperature;BMP_pressure;BME280_temperature;BME280_humidity;BME280_pressure;Samples;Min_cycle;Max_cycle;Signal;HPM_P1;HPM_P2
2023/03/11 00:00:15;;;;;;;31.20;12.73;;;2.50;99.90;;;;;;6339484;22;20172;-95
2023/03/11 00:02:42;;;;;;;27.73;12.03;;;2.40;99.90;;;;;;6340747;22;20156;-95
2023/03/11 00:05:12;;;;;;;23.47;10.77;;;2.40;99.90;;;;;;6340689;22;20204;-94
2023/03/11 00:07:39;;;;;;;21.13;9.63;;;2.40;99.90;;;;;;6341281;22;20170;-94
2023/03/11 00:10:07;;;;;;;33.20;14.37;;;2.40;99.90;;;;;;6339981;22;20169;-95
2023/03/11 00:12:34;;;;;;;21.33;9.80;;;2.40;99.90;;;;;;6340338;22;20196;-93
2023/03/11 00:15:02;;;;;;;20.90;9.97;;;2.40;99.90;;;;;;6339931;22;20168;-93
2023/03/11 00:17:29;;;;;;;21.07;9.87;;;2.40;99.90;;;;;;6339995;22;20266;-95
2023/03/11 00:19:56;;;;;;;33.30;13.57;;;2.30;99.90;;;;;;6341705;22;20177;-95
2023/03/11 00:22:22;;;;;;;28.93;13.50;;;2.30;99.90;;;;;;6342031;22;20170;-95
2023/03/11 00:24:49;;;;;;;26.77;11.90;;;2.30;99.90;;;;;;6342108;22;20626;-95
2023/03/11 00:27:16;;;;;;;25.80;11.40;;;2.30;1.00;;;;;;6342215;22;20187;-96
2023/03/11 00:29:43;;;;;;;31.60;13.67;;;2.30;1.00;;;;;;6342140;22;20168;-96
2023/03/11 00:32:11;;;;;;;24.60;12.30;;;2.30;1.00;;;;;;6341764;22;20168;-94
2023/03/11 00:34:37;;;;;;;28.03;11.87;;;2.30;1.00;;;;;;6342140;22;20168;-96
2023/03/11 00:37:04;;;;;;;24.80;11.30;;;2.30;1.00;;;;;;6341760;22;20164;-94
2023/03/11 00:39:31;;;;;;;22.60;11.20;;;2.30;1.00;;;;;;6342025;22;20196;-95
2023/03/11 00:41:58;;;;;;;21.07;9.73;;;2.30;1.00;;;;;;6341806;22;20196;-95
2023/03/11 00:44:25;;;;;;;16.20;7.23;;;2.30;1.00;;;;;;6341740;22;20655;-95
2023/03/11 00:46:52;;;;;;;14.43;6.80;;;2.30;1.00;;;;;;6342052;22;20168;-95
2023/03/11 00:49:20;;;;;;;17.20;8.93;;;2.30;1.00;;;;;;6341293;22;20753;-94
2023/03/11 00:51:47;;;;;;;22.90;10.30;;;2.30;1.00;;;;;;6341968;22;20175;-96
2023/03/11 00:54:14;;;;;;;22.97;10.00;;;2.30;1.00;;;;;;6342680;22;20169;-95
2023/03/11 00:56:41;;;;;;;21.17;9.73;;;2.30;1.00;;;;;;6342520;22;20167;-96
2023/03/11 00:59:08;;;;;;;20.70;10.27;;;2.30;1.00;;;;;;6342983;22;20193;-95
2023/03/11 01:01:35;;;;;;;14.90;7.73;;;2.30;1.00;;;;;;6345906;22;20197;-96
2023/03/11 01:04:01;;;;;;;19.07;9.33;;;2.30;1.00;;;;;;6345209;22;20226;-96
2023/03/11 01:06:30;;;;;;;19.43;9.07;;;2.30;1.00;;;;;;6351675;22;20173;-96
2023/03/11 01:08:56;;;;;;;13.77;7.40;;;2.30;1.00;;;;;;6344896;22;20247;-96
2023/03/11 01:11:23;;;;;;;18.90;8.93;;;2.30;1.00;;;;;;6342507;22;20171;-96
2023/03/11 01:13:50;;;;;;;15.57;7.93;;;2.30;1.00;;;;;;6341763;22;20179;-95
2023/03/11 01:16:17;;;;;;;14.63;7.30;;;2.30;1.00;;;;;;6342609;22;20174;-95
2023/03/11 01:18:44;;;;;;;17.03;7.77;;;2.30;1.00;;;;;;6342898;22;20192;-96
2023/03/11 01:21:10;;;;;;;14.27;6.93;;;2.30;1.00;;;;;;6342592;22;20250;-96
2023/03/11 01:23:39;;;;;;;17.90;8.53;;;2.30;1.00;;;;;;6342436;22;20257;-96
2023/03/11 01:26:06;;;;;;;26.80;11.10;;;2.30;1.00;;;;;;6341807;22;20625;-95
2023/03/11 01:28:32;;;;;;;19.43;8.53;;;2.30;1.00;;;;;;6341469;22;20244;-95
2023/03/11 01:31:00;;;;;;;20.67;9.47;;;2.30;1.00;;;;;;6341597;22;20168;-96
2023/03/11 01:33:28;;;;;;;16.60;7.93;;;2.30;1.00;;;;;;6341835;22;20196;-96
2023/03/11 01:35:55;;;;;;;18.73;9.43;;;2.30;1.00;;;;;;6341782;22;20175;-96
2023/03/11 01:38:21;;;;;;;13.53;6.83;;;2.30;1.00;;;;;;6341190;22;20190;-95
2023/03/11 01:40:51;;;;;;;13.27;7.03;;;2.30;1.00;;;;;;6342488;22;20167;-95
2023/03/11 01:43:53;;;;;;;13.40;6.63;;;2.20;1.00;;;;;;6341609;22;20169;-95
2023/03/11 01:46:22;;;;;;;16.53;8.53;;;2.20;1.00;;;;;;6342210;22;20150;-95
2023/03/11 01:48:50;;;;;;;13.10;6.97;;;2.30;1.00;;;;;;6345480;22;20198;-96
2023/03/11 01:51:22;;;;;;;16.40;7.87;;;2.20;1.00;;;;;;6341592;22;20158;-96
2023/03/11 01:53:49;;;;;;;17.63;8.80;;;2.20;1.00;;;;;;6341312;22;20153;-96
2023/03/11 01:56:18;;;;;;;12.73;7.20;;;2.20;1.00;;;;;;6341295;22;20253;-96
2023/03/11 01:58:48;;;;;;;17.30;8.17;;;2.20;1.00;;;;;;6340683;22;20260;-95
2023/03/11 02:01:16;;;;;;;12.70;6.83;;;2.20;1.00;;;;;;6341511;22;20171;-95
2023/03/11 02:03:43;;;;;;;19.40;9.30;;;2.20;1.00;;;;;;6341344;22;20247;-95
2023/03/11 02:06:13;;;;;;;15.33;8.50;;;2.20;1.00;;;;;;6340978;22;20193;-96
2023/03/11 02:08:42;;;;;;;21.07;10.80;;;2.20;1.00;;;;;;6342352;22;20182;-96
2023/03/11 02:11:11;;;;;;;18.37;9.53;;;2.20;1.00;;;;;;6341342;22;20202;-95
2023/03/11 02:13:41;;;;;;;17.77;9.90;;;2.10;1.00;;;;;;6340600;22;20203;-94
2023/03/11 02:16:08;;;;;;;12.97;6.53;;;2.10;1.00;;;;;;6340989;22;20165;-95
2023/03/11 02:18:35;;;;;;;20.07;10.80;;;2.10;1.00;;;;;;6341250;22;20188;-95
2023/03/11 02:21:09;;;;;;;18.40;9.20;;;2.10;1.00;;;;;;6341127;22;20172;-95
2023/03/11 02:23:44;;;;;;;19.67;9.77;;;2.10;1.00;;;;;;6341015;22;20163;-96
2023/03/11 02:26:16;;;;;;;20.27;10.57;;;2.00;1.00;;;;;;6340942;22;20153;-95
2023/03/11 02:28:46;;;;;;;18.77;9.83;;;2.00;1.00;;;;;;6341143;22;20234;-95
2023/03/11 02:31:14;;;;;;;22.73;11.87;;;2.00;1.00;;;;;;6341137;22;20492;-96
2023/03/11 02:33:43;;;;;;;19.03;9.97;;;1.90;1.00;;;;;;6340650;22;20539;-95
2023/03/11 02:36:33;;;;;;;23.03;12.43;;;1.90;1.00;;;;;;6340780;22;20172;-96
2023/03/11 02:39:00;;;;;;;23.77;13.13;;;1.90;1.00;;;;;;6340618;22;20176;-95
2023/03/11 02:41:28;;;;;;;21.13;11.47;;;1.90;1.00;;;;;;6340772;22;20172;-96
2023/03/11 02:43:56;;;;;;;23.60;12.27;;;1.90;1.00;;;;;;6340937;22;20171;-96
2023/03/11 02:46:23;;;;;;;21.63;11.63;;;1.80;1.00;;;;;;6341783;22;20171;-96
2023/03/11 02:48:51;;;;;;;22.63;12.93;;;1.80;1.00;;;;;;6346729;22;20172;-96
2023/03/11 02:51:18;;;;;;;23.17;11.90;;;1.80;1.00;;;;;;6348877;22;20156;-96
2023/03/11 02:53:49;;;;;;;23.57;12.37;;;1.80;1.00;;;;;;6348396;22;20549;-96
2023/03/11 02:56:16;;;;;;;25.30;12.43;;;1.80;1.00;;;;;;6353869;22;20210;-96
2023/03/11 02:58:42;;;;;;;23.17;12.80;;;1.80;1.00;;;;;;6364714;22;20197;-96
2023/03/11 03:01:10;;;;;;;23.13;12.73;;;1.80;1.00;;;;;;6354930;22;20245;-96
2023/03/11 03:03:37;;;;;;;21.40;11.97;;;1.80;1.00;;;;;;6342132;22;20162;-96
2023/03/11 03:06:05;;;;;;;20.60;10.17;;;1.70;1.00;;;;;;6342324;22;20167;-96
2023/03/11 03:08:32;;;;;;;24.60;13.40;;;1.80;1.00;;;;;;6344134;22;20167;-96
2023/03/11 03:11:00;;;;;;;22.43;12.30;;;1.80;1.00;;;;;;6341379;22;20553;-95
2023/03/11 03:13:28;;;;;;;23.20;12.70;;;1.80;1.00;;;;;;6340785;22;20179;-96
2023/03/11 03:15:55;;;;;;;23.33;12.70;;;1.80;1.00;;;;;;6340934;22;20173;-95
2023/03/11 03:18:23;;;;;;;25.57;13.03;;;1.80;1.00;;;;;;6340586;22;20199;-95
2023/03/11 03:20:50;;;;;;;26.30;13.17;;;1.90;1.00;;;;;;6341181;22;20219;-95
2023/03/11 03:23:18;;;;;;;34.17;15.63;;;1.80;1.00;;;;;;6341329;22;20697;-96
2023/03/11 03:25:45;;;;;;;24.20;11.57;;;1.90;1.00;;;;;;6341565;22;20472;-96
2023/03/11 03:28:12;;;;;;;24.83;12.33;;;1.90;1.00;;;;;;6347345;22;20175;-96
2023/03/11 03:30:39;;;;;;;25.33;13.17;;;1.80;1.00;;;;;;6345077;22;20203;-96
2023/03/11 03:33:07;;;;;;;23.83;12.40;;;1.80;1.00;;;;;;6342934;22;20193;-96
2023/03/11 03:35:35;;;;;;;26.13;13.33;;;1.80;1.00;;;;;;6343295;22;20173;-96
2023/03/11 03:38:02;;;;;;;22.13;11.37;;;1.80;1.00;;;;;;6347095;22;20200;-96
2023/03/11 03:40:29;;;;;;;23.70;12.87;;;1.80;1.00;;;;;;6346394;22;20231;-95
2023/03/11 03:42:56;;;;;;;22.37;11.73;;;1.80;1.00;;;;;;6341207;22;20180;-96
2023/03/11 03:45:23;;;;;;;27.23;13.97;;;1.70;1.00;;;;;;6340526;22;20484;-95
2023/03/11 03:47:49;;;;;;;22.40;11.00;;;1.70;1.00;;;;;;6341441;22;20250;-96
2023/03/11 03:50:16;;;;;;;22.70;12.10;;;1.70;1.00;;;;;;6340821;22;20187;-96
2023/03/11 03:52:44;;;;;;;24.33;13.13;;;1.70;1.00;;;;;;6340336;22;20641;-95
2023/03/11 03:55:11;;;;;;;26.63;14.33;;;1.70;1.00;;;;;;6342535;22;20171;-96
2023/03/11 03:57:38;;;;;;;22.63;12.67;;;1.70;1.00;;;;;;6343012;22;20174;-96
2023/03/11 04:00:07;;;;;;;30.70;15.40;;;1.70;1.00;;;;;;6342297;22;20194;-96
2023/03/11 04:02:34;;;;;;;23.97;13.13;;;1.70;1.00;;;;;;6342880;22;20173;-96
2023/03/11 04:05:01;;;;;;;26.53;14.33;;;1.70;1.00;;;;;;6344361;22;20248;-95
2023/03/11 04:07:28;;;;;;;32.03;15.93;;;1.60;1.00;;;;;;6353782;22;20193;-96
2023/03/11 04:09:56;;;;;;;25.70;13.23;;;1.70;1.00;;;;;;6343485;22;20168;-95
2023/03/11 04:12:23;;;;;;;28.63;14.47;;;1.60;1.00;;;;;;6343201;22;20173;-95
2023/03/11 04:14:50;;;;;;;27.10;14.60;;;1.60;1.00;;;;;;6342055;22;20202;-95
2023/03/11 04:17:17;;;;;;;29.93;14.83;;;1.60;1.00;;;;;;6342663;22;20170;-95
2023/03/11 04:19:44;;;;;;;25.37;13.13;;;1.60;1.00;;;;;;6343259;22;20183;-95
2023/03/11 04:22:11;;;;;;;28.67;15.50;;;1.60;1.00;;;;;;6342301;22;20195;-96
2023/03/11 04:24:38;;;;;;;33.77;16.43;;;1.60;1.00;;;;;;6341837;22;20171;-95
2023/03/11 04:27:06;;;;;;;24.47;12.43;;;1.60;1.00;;;;;;6342102;22;20168;-95
2023/03/11 04:29:33;;;;;;;30.23;14.43;;;1.50;1.00;;;;;;6341726;22;20163;-95
2023/03/11 04:31:59;;;;;;;30.17;16.27;;;1.50;1.00;;;;;;6342224;22;20171;-96
2023/03/11 04:34:26;;;;;;;26.03;13.13;;;1.50;1.00;;;;;;6342048;22;20171;-94
2023/03/11 04:36:54;;;;;;;24.63;12.67;;;1.50;1.00;;;;;;6341865;22;20172;-96
2023/03/11 04:39:20;;;;;;;20.63;10.77;;;1.50;1.00;;;;;;6341859;22;20192;-96
2023/03/11 04:41:47;;;;;;;23.13;12.43;;;1.50;1.00;;;;;;6341917;22;20668;-94
2023/03/11 04:44:15;;;;;;;20.60;11.17;;;1.50;1.00;;;;;;6342280;22;20269;-95
2023/03/11 04:46:42;;;;;;;17.67;9.90;;;1.50;1.00;;;;;;6341926;22;20254;-95
2023/03/11 04:49:09;;;;;;;20.57;12.57;;;1.50;1.00;;;;;;6341295;22;20186;-96
2023/03/11 04:51:36;;;;;;;20.13;11.87;;;1.50;1.00;;;;;;6341693;22;20164;-96
2023/03/11 04:54:03;;;;;;;16.93;10.20;;;1.50;1.00;;;;;;6341484;22;20190;-95
2023/03/11 04:56:30;;;;;;;21.03;11.57;;;1.50;1.00;;;;;;6341664;22;20194;-95
2023/03/11 04:58:57;;;;;;;17.47;10.27;;;1.50;1.00;;;;;;6341710;22;20180;-95
2023/03/11 05:01:25;;;;;;;19.03;11.10;;;1.50;1.00;;;;;;6341649;22;20241;-94
2023/03/11 05:03:52;;;;;;;15.73;9.57;;;1.50;1.00;;;;;;6341322;22;20247;-96
2023/03/11 05:06:19;;;;;;;14.27;8.43;;;1.50;1.00;;;;;;6341937;22;20167;-95
2023/03/11 05:08:45;;;;;;;17.23;9.27;;;1.50;1.00;;;;;;6341617;22;20167;-95
2023/03/11 05:11:12;;;;;;;12.13;7.97;;;1.60;1.00;;;;;;6341806;22;20174;-95
2023/03/11 05:13:39;;;;;;;15.83;8.47;;;1.60;1.00;;;;;;6341599;22;20168;-94
2023/03/11 05:16:06;;;;;;;13.10;7.60;;;1.60;1.00;;;;;;6341499;22;20171;-95
2023/03/11 05:18:34;;;;;;;15.30;9.40;;;1.60;1.00;;;;;;6341311;22;20676;-95
2023/03/11 05:21:01;;;;;;;12.10;7.63;;;1.60;1.00;;;;;;6341574;22;20174;-95
2023/03/11 05:23:28;;;;;;;14.17;8.40;;;1.60;1.00;;;;;;6341302;22;20209;-95
2023/03/11 05:25:55;;;;;;;15.20;9.50;;;1.60;1.50;;;;;;6341326;22;20250;-95
2023/03/11 05:28:22;;;;;;;12.20;7.20;;;1.60;10.90;;;;;;6341593;22;20227;-95
2023/03/11 05:30:49;;;;;;;14.17;8.47;;;1.60;28.10;;;;;;6341794;22;20257;-95
2023/03/11 05:33:16;;;;;;;13.60;8.63;;;1.60;21.60;;;;;;6341586;22;20172;-95
2023/03/11 05:35:44;;;;;;;10.97;8.03;;;1.60;40.70;;;;;;6341445;22;20167;-95
2023/03/11 05:38:10;;;;;;;12.80;8.10;;;1.60;70.50;;;;;;6341503;22;20171;-96
2023/03/11 05:40:37;;;;;;;9.83;6.50;;;1.60;80.00;;;;;;6341402;22;20188;-96
2023/03/11 05:43:04;;;;;;;14.07;7.23;;;1.60;99.90;;;;;;6341557;22;20167;-95
2023/03/11 05:45:31;;;;;;;12.97;8.43;;;1.70;99.90;;;;;;6341584;22;20199;-95
2023/03/11 05:47:58;;;;;;;12.60;8.37;;;1.60;90.70;;;;;;6342265;22;20179;-96
2023/03/11 05:50:25;;;;;;;10.53;6.83;;;1.70;83.00;;;;;;6342212;22;20251;-95
2023/03/11 05:52:53;;;;;;;12.67;7.93;;;1.70;72.10;;;;;;6343631;22;20258;-96
2023/03/11 05:55:20;;;;;;;11.47;7.07;;;1.70;61.30;;;;;;6346256;22;20164;-96
2023/03/11 05:57:47;;;;;;;13.20;7.80;;;1.70;56.00;;;;;;6354227;22;20156;-96
2023/03/11 06:00:15;;;;;;;13.83;8.70;;;1.60;56.90;;;;;;6347629;22;20265;-95
2023/03/11 06:02:42;;;;;;;13.63;8.27;;;1.60;48.00;;;;;;6341123;22;20701;-95
2023/03/11 06:05:09;;;;;;;11.30;7.43;;;1.60;56.80;;;;;;6342029;22;20201;-93
2023/03/11 06:07:37;;;;;;;11.30;7.50;;;1.70;60.10;;;;;;6342003;22;20266;-95
2023/03/11 06:10:06;;;;;;;13.77;7.90;;;1.60;51.10;;;;;;6341607;22;20191;-94
2023/03/11 06:12:34;;;;;;;9.20;6.30;;;1.60;56.20;;;;;;6341645;22;20163;-95
2023/03/11 06:15:01;;;;;;;12.23;7.07;;;1.60;65.00;;;;;;6341060;22;20173;-96
2023/03/11 06:17:27;;;;;;;12.23;8.00;;;1.70;47.40;;;;;;6343042;22;20561;-96
2023/03/11 06:19:54;;;;;;;10.37;7.07;;;1.70;56.50;;;;;;6343988;22;20182;-95
2023/03/11 06:22:21;;;;;;;8.27;5.17;;;1.70;97.40;;;;;;6345978;22;20246;-95
2023/03/11 06:24:48;;;;;;;10.03;6.43;;;1.70;56.70;;;;;;6351673;22;20235;-95
2023/03/11 06:27:16;;;;;;;10.87;6.70;;;1.70;3.50;;;;;;6360977;22;20173;-96
2023/03/11 06:53:09;;;;;;;7.67;5.13;;;2.00;1.00;;;;;;6349930;22;20190;-96
2023/03/11 06:55:36;;;;;;;10.07;5.57;;;2.00;1.00;;;;;;6358448;22;20222;-96
2023/03/11 06:58:03;;;;;;;10.60;6.50;;;2.10;1.00;;;;;;6348947;22;20174;-96
2023/03/11 07:00:30;;;;;;;6.70;4.57;;;2.20;1.00;;;;;;6341868;22;20266;-95
2023/03/11 07:02:57;;;;;;;7.77;5.40;;;2.20;1.00;;;;;;6342343;22;20178;-95
2023/03/11 07:05:24;;;;;;;8.47;5.87;;;2.20;99.90;;;;;;6341836;22;20248;-96
2023/03/11 07:07:53;;;;;;;7.13;4.57;;;2.30;99.90;;;;;;6340608;22;20178;-96
2023/03/11 07:10:22;;;;;;;6.67;4.47;;;2.20;99.90;;;;;;6342110;22;20501;-96
2023/03/11 07:12:49;;;;;;;5.93;3.27;;;2.20;99.90;;;;;;6342962;22;20219;-96
2023/03/11 07:15:16;;;;;;;6.00;3.60;;;2.20;99.90;;;;;;6344710;22;20193;-95
2023/03/11 07:17:42;;;;;;;5.87;3.53;;;2.20;99.90;;;;;;6345220;22;20183;-96
2023/03/11 07:20:11;;;;;;;6.77;3.57;;;2.20;99.90;;;;;;6342275;22;20306;-95
2023/03/11 07:22:38;;;;;;;5.37;4.13;;;2.20;99.90;;;;;;6343448;22;20177;-96
2023/03/11 07:25:05;;;;;;;5.57;4.07;;;2.30;1.00;;;;;;6341334;22;20178;-96
2023/03/11 07:27:34;;;;;;;6.83;4.30;;;2.30;1.00;;;;;;6343889;22;20218;-96
2023/03/11 07:30:01;;;;;;;5.80;3.20;;;2.20;1.00;;;;;;6341455;22;20182;-95
2023/03/11 07:32:28;;;;;;;9.90;5.87;;;2.30;1.00;;;;;;6340176;22;20188;-95
2023/03/11 07:34:55;;;;;;;5.00;3.43;;;2.30;1.00;;;;;;6340401;22;20167;-95
2023/03/11 07:37:22;;;;;;;8.57;5.43;;;2.30;1.00;;;;;;6340231;22;20240;-95
2023/03/11 07:39:48;;;;;;;5.87;4.07;;;2.40;99.90;;;;;;6340918;22;20207;-94
2023/03/11 07:42:15;;;;;;;5.93;3.90;;;2.50;99.90;;;;;;6341272;22;20167;-95
2023/03/11 07:44:43;;;;;;;8.40;5.00;;;2.50;99.90;;;;;;6340002;22;20158;-94
2023/03/11 07:47:10;;;;;;;6.03;4.17;;;2.50;1.00;;;;;;6340306;22;20166;-93
2023/03/11 07:49:37;;;;;;;3.93;2.97;;;2.50;1.00;;;;;;6338914;22;20702;-90
2023/03/11 07:52:04;;;;;;;6.50;3.73;;;2.50;1.00;;;;;;6338700;22;20508;-90
2023/03/11 07:54:31;;;;;;;7.53;4.63;;;2.60;99.90;;;;;;6338527;22;20168;-89
2023/03/11 07:56:58;;;;;;;6.37;4.53;;;2.50;99.90;;;;;;6338531;22;20192;-89
2023/03/11 07:59:25;;;;;;;7.30;4.27;;;2.50;99.90;;;;;;6338744;22;20196;-89
2023/03/11 08:01:53;;;;;;;7.40;4.37;;;2.60;1.00;;;;;;6339258;22;20478;-90
2023/03/11 08:04:20;;;;;;;7.93;3.80;;;2.60;1.00;;;;;;6338969;22;20168;-89
2023/03/11 08:06:47;;;;;;;4.83;3.30;;;2.60;1.00;;;;;;6339096;22;20167;-89
2023/03/11 08:09:14;;;;;;;6.50;4.93;;;2.60;99.90;;;;;;6338750;22;20175;-89
2023/03/11 08:11:42;;;;;;;6.10;3.87;;;2.70;99.90;;;;;;6338705;22;20617;-89
2023/03/11 08:14:09;;;;;;;8.33;4.70;;;2.80;1.00;;;;;;6338194;22;20206;-90
2023/03/11 08:16:36;;;;;;;7.27;4.87;;;3.00;99.90;;;;;;6339213;22;20172;-91
2023/03/11 08:19:04;;;;;;;7.70;5.57;;;3.10;99.90;;;;;;6339044;22;20713;-90
2023/03/11 08:21:31;;;;;;;11.07;6.50;;;3.30;99.90;;;;;;6338977;22;20172;-89
2023/03/11 08:23:59;;;;;;;9.63;5.97;;;3.40;1.00;;;;;;6338458;22;20684;-91
2023/03/11 08:26:26;;;;;;;9.03;5.50;;;3.60;99.90;;;;;;6339072;22;20249;-91
2023/03/11 08:28:55;;;;;;;8.53;5.30;;;3.60;1.00;;;;;;6339585;22;20166;-91
2023/03/11 08:31:24;;;;;;;7.20;5.47;;;3.60;1.00;;;;;;6339136;22;20174;-91
2023/03/11 08:33:52;;;;;;;8.10;4.23;;;3.60;99.90;;;;;;6339579;22;20216;-90
2023/03/11 08:36:21;;;;;;;5.93;4.03;;;3.50;99.90;;;;;;6339386;22;20176;-90
2023/03/11 08:38:48;;;;;;;5.43;4.07;;;3.40;99.90;;;;;;6339460;22;20253;-90
2023/03/11 08:41:15;;;;;;;6.10;3.87;;;3.30;99.90;;;;;;6340489;22;20196;-90
2023/03/11 08:43:43;;;;;;;7.87;3.93;;;3.30;1.00;;;;;;6340116;22;20620;-89
2023/03/11 08:46:17;;;;;;;6.50;4.63;;;3.30;1.00;;;;;;6340591;22;20198;-90
2023/03/11 08:48:44;;;;;;;6.47;4.30;;;3.30;99.90;;;;;;6340420;22;20241;-89
2023/03/11 08:51:11;;;;;;;9.13;6.13;;;3.40;1.00;;;;;;6339928;22;20165;-89
2023/03/11 08:53:40;;;;;;;8.17;5.40;;;3.50;1.00;;;;;;6337964;22;20169;-90
2023/03/11 08:56:07;;;;;;;10.57;7.60;;;3.50;1.00;;;;;;6339402;22;20196;-91
2023/03/11 08:58:34;;;;;;;8.83;4.83;;;3.50;1.00;;;;;;6340058;22;20172;-92
2023/03/11 09:01:01;;;;;;;8.67;5.70;;;3.50;99.90;;;;;;6338776;22;20188;-91
2023/03/11 09:03:31;;;;;;;9.40;5.53;;;3.60;99.90;;;;;;6340036;22;20245;-89
2023/03/11 09:05:59;;;;;;;8.00;5.30;;;3.60;98.20;;;;;;6339449;22;20150;-91
2023/03/11 09:08:26;;;;;;;7.83;4.60;;;3.60;1.00;;;;;;6339200;22;20202;-90
2023/03/11 09:10:54;;;;;;;8.97;5.13;;;3.50;1.00;;;;;;6340663;22;20668;-90
2023/03/11 09:13:21;;;;;;;8.00;4.20;;;3.30;1.00;;;;;;6340019;22;20180;-90
2023/03/11 09:15:48;;;;;;;10.83;6.53;;;3.10;1.00;;;;;;6339216;22;20170;-92
2023/03/11 09:18:16;;;;;;;12.73;6.73;;;3.00;99.90;;;;;;6338798;22;20257;-90
2023/03/11 09:20:43;;;;;;;10.33;4.40;;;2.90;1.00;;;;;;6338905;22;20186;-90
2023/03/11 09:23:12;;;;;;;16.27;7.90;;;2.90;1.00;;;;;;6336720;22;20490;-91
2023/03/11 09:25:39;;;;;;;9.07;4.20;;;2.70;1.00;;;;;;6339433;22;20168;-92
2023/03/11 09:28:07;;;;;;;8.13;5.20;;;2.60;1.00;;;;;;6339278;22;20661;-89
2023/03/11 09:30:34;;;;;;;8.43;4.43;;;2.50;28.70;;;;;;6337921;22;20169;-91
2023/03/11 09:33:01;;;;;;;5.10;3.80;;;2.50;99.90;;;;;;6339872;22;20475;-92
2023/03/11 09:35:28;;;;;;;4.13;2.80;;;2.50;99.90;;;;;;6339810;22;20166;-91
2023/03/11 09:37:55;;;;;;;5.60;3.53;;;2.50;1.00;;;;;;6339385;22;20170;-91
2023/03/11 09:40:25;;;;;;;3.37;2.50;;;2.40;1.00;;;;;;6339002;22;20193;-91
2023/03/11 09:43:03;;;;;;;6.70;3.57;;;2.50;95.00;;;;;;6338983;22;20506;-91
2023/03/11 09:45:34;;;;;;;4.67;2.43;;;2.50;1.00;;;;;;6338952;22;20159;-91
2023/03/11 09:48:17;;;;;;;3.53;2.47;;;2.50;1.00;;;;;;6338793;22;20160;-91
2023/03/11 09:50:48;;;;;;;5.17;2.30;;;2.60;1.00;;;;;;6336993;22;20153;-92
2023/03/11 09:53:26;;;;;;;4.93;3.13;;;2.50;1.00;;;;;;6340634;22;20266;-91
2023/03/11 09:55:55;;;;;;;5.70;3.17;;;2.60;1.00;;;;;;6340198;22;20192;-92
2023/03/11 09:58:36;;;;;;;5.30;2.90;;;2.60;1.00;;;;;;6341136;22;20253;-92
2023/03/11 10:01:16;;;;;;;5.30;3.23;;;2.50;99.90;;;;;;6341013;22;20225;-93
2023/03/11 10:03:44;;;;;;;4.63;3.00;;;2.50;99.90;;;;;;6340618;22;20489;-92
2023/03/11 10:06:16;;;;;;;6.90;3.60;;;2.50;99.90;;;;;;6340648;22;20168;-91
2023/03/11 10:08:46;;;;;;;4.77;2.90;;;2.50;99.90;;;;;;6340115;22;20179;-91
2023/03/11 10:11:29;;;;;;;5.50;3.00;;;2.60;99.90;;;;;;6340420;22;20170;-92
2023/03/11 10:14:06;;;;;;;5.87;3.97;;;2.70;99.90;;;;;;6340686;22;20150;-91
2023/03/11 10:16:42;;;;;;;6.90;3.07;;;2.80;99.90;;;;;;6340588;22;20160;-91
2023/03/11 10:19:14;;;;;;;5.77;3.50;;;2.80;1.00;;;;;;6340788;22;20210;-92
2023/03/11 10:21:48;;;;;;;5.83;3.17;;;2.80;1.00;;;;;;6340109;22;20170;-91
2023/03/11 10:24:33;;;;;;;6.27;3.30;;;2.60;1.00;;;;;;6339588;22;20156;-90
2023/03/11 10:27:03;;;;;;;8.57;5.20;;;2.60;1.00;;;;;;6339559;22;20154;-89
2023/03/11 10:29:34;;;;;;;6.37;4.10;;;2.50;99.90;;;;;;6338843;22;20168;-89
2023/03/11 10:32:07;;;;;;;9.27;4.17;;;2.60;99.90;;;;;;6339085;22;20157;-90
2023/03/11 10:34:39;;;;;;;4.97;3.40;;;2.60;99.90;;;;;;6339066;22;20156;-90
2023/03/11 10:37:12;;;;;;;7.43;3.53;;;2.80;1.00;;;;;;6339238;22;20144;-90
2023/03/11 10:39:40;;;;;;;6.97;3.60;;;3.00;1.00;;;;;;6339049;22;20164;-89
2023/03/11 10:42:13;;;;;;;13.83;6.63;;;3.20;1.00;;;;;;6338069;22;20666;-88
2023/03/11 10:44:41;;;;;;;6.87;4.33;;;3.40;1.00;;;;;;6338877;22;20150;-88
2023/03/11 10:47:16;;;;;;;9.83;5.07;;;3.90;99.90;;;;;;6338981;22;20677;-89
2023/03/11 10:49:43;;;;;;;6.07;4.17;;;4.20;1.00;;;;;;6338137;22;20676;-89
2023/03/11 10:52:10;;;;;;;6.17;4.10;;;4.40;1.00;;;;;;6338343;22;20196;-89
2023/03/11 10:54:39;;;;;;;8.23;4.73;;;4.30;1.00;;;;;;6338020;22;20642;-89
2023/03/11 10:57:21;;;;;;;7.90;5.27;;;4.20;1.00;;;;;;6339215;22;20192;-89
2023/03/11 10:59:49;;;;;;;6.50;4.40;;;4.30;1.00;;;;;;6340538;22;20150;-89
2023/03/11 11:02:26;;;;;;;4.47;3.20;;;4.40;99.90;;;;;;6339761;22;20221;-89
2023/03/11 11:05:06;;;;;;;5.67;4.03;;;4.40;99.90;;;;;;6339179;22;20171;-89
2023/03/11 11:07:35;;;;;;;4.83;2.60;;;4.50;99.90;;;;;;6339776;22;20235;-89
2023/03/11 11:10:17;;;;;;;6.30;3.63;;;4.70;1.00;;;;;;6337610;22;20171;-89
2023/03/11 11:12:55;;;;;;;5.53;2.83;;;4.50;99.90;;;;;;6339031;22;20170;-90
2023/03/11 11:15:24;;;;;;;3.83;1.87;;;4.30;1.00;;;;;;6338393;22;20150;-90
2023/03/11 11:17:54;;;;;;;2.17;1.90;;;4.10;99.90;;;;;;6337991;22;20166;-89
2023/03/11 11:20:23;;;;;;;2.87;2.03;;;4.00;99.90;;;;;;6335376;22;20169;-90
2023/03/11 11:22:52;;;;;;;3.43;2.17;;;3.90;99.90;;;;;;6337317;22;20640;-89
2023/03/11 11:25:31;;;;;;;4.13;2.43;;;3.80;1.00;;;;;;6339252;22;20714;-92
2023/03/11 11:28:00;;;;;;;4.63;2.10;;;3.90;99.90;;;;;;6339510;22;20150;-91
2023/03/11 11:30:28;;;;;;;3.30;2.17;;;3.80;1.00;;;;;;6339490;22;20162;-91
2023/03/11 11:32:57;;;;;;;2.63;1.77;;;3.90;1.00;;;;;;6340120;22;20170;-94
2023/03/11 11:35:24;;;;;;;3.43;2.57;;;4.10;1.00;;;;;;6339531;22;20249;-91
2023/03/11 11:37:53;;;;;;;7.20;4.00;;;4.00;99.90;;;;;;6339106;22;20172;-92
2023/03/11 11:40:28;;;;;;;7.33;4.90;;;3.80;1.00;;;;;;6339575;22;20166;-92
2023/03/11 11:42:59;;;;;;;6.33;2.90;;;3.60;1.00;;;;;;6339723;22;20169;-92
2023/03/11 11:45:37;;;;;;;5.60;3.10;;;3.80;1.00;;;;;;6339696;22;20244;-92
2023/03/11 11:48:14;;;;;;;4.67;2.63;;;4.00;1.00;;;;;;6340238;22;20156;-92
2023/03/11 11:50:44;;;;;;;3.60;2.13;;;4.20;1.00;;;;;;6340103;22;20225;-92
2023/03/11 11:53:23;;;;;;;2.17;1.73;;;4.30;1.00;;;;;;6339819;22;20166;-91
2023/03/11 11:55:52;;;;;;;5.27;2.67;;;4.40;1.00;;;;;;6340023;22;20241;-92
2023/03/11 11:58:20;;;;;;;5.03;2.87;;;4.50;1.00;;;;;;6339832;22;20631;-93
2023/03/11 12:01:07;;;;;;;3.60;2.20;;;4.70;1.00;;;;;;6339886;22;20188;-91
2023/03/11 12:04:04;;;;;;;5.97;1.70;;;4.80;99.90;;;;;;6340450;22;20155;-92
2023/03/11 12:06:39;;;;;;;2.97;1.80;;;4.80;99.90;;;;;;6339887;22;20172;-92
2023/03/11 12:09:14;;;;;;;4.70;2.40;;;4.60;99.90;;;;;;6339862;22;20162;-92
2023/03/11 12:11:47;;;;;;;3.30;2.43;;;4.40;99.90;;;;;;6339930;22;20150;-92
2023/03/11 12:14:19;;;;;;;2.60;1.90;;;4.30;99.90;;;;;;6340616;22;20150;-92
2023/03/11 12:16:52;;;;;;;4.97;2.33;;;4.10;99.90;;;;;;6341729;22;20158;-92
2023/03/11 12:19:37;;;;;;;4.50;2.40;;;3.90;99.90;;;;;;6341728;22;20151;-92
2023/03/11 12:22:30;;;;;;;3.83;2.57;;;3.90;1.00;;;;;;6341503;22;20180;-93
2023/03/11 12:25:20;;;;;;;4.03;2.53;;;4.00;1.00;;;;;;6328602;22;20172;-92
2023/03/11 12:27:52;;;;;;;3.50;2.10;;;4.20;1.00;;;;;;6341265;22;20501;-93
2023/03/11 12:30:22;;;;;;;5.07;2.00;;;4.60;1.00;;;;;;6341539;22;20174;-91
2023/03/11 12:32:53;;;;;;;4.43;2.83;;;4.90;1.00;;;;;;6340723;22;20154;-92
2023/03/11 12:35:26;;;;;;;5.70;3.90;;;5.00;99.90;;;;;;6341173;22;20165;-92
2023/03/11 12:38:01;;;;;;;7.43;4.83;;;4.90;99.90;;;;;;6343164;22;20150;-92
2023/03/11 12:40:56;;;;;;;9.00;5.57;;;4.80;99.90;;;;;;6343228;22;20154;-93
2023/03/11 12:43:48;;;;;;;6.87;3.30;;;4.70;99.90;;;;;;6340744;22;20154;-91
2023/03/11 12:46:17;;;;;;;7.87;4.73;;;4.60;99.90;;;;;;6341642;22;20542;-93
2023/03/11 12:48:46;;;;;;;8.90;6.23;;;4.60;99.90;;;;;;6341132;22;20166;-91
2023/03/11 12:51:38;;;;;;;16.60;9.70;;;4.60;99.90;;;;;;6340699;22;20627;-91
2023/03/11 12:54:21;;;;;;;13.43;9.57;;;4.70;99.90;;;;;;6341138;22;20197;-92
2023/03/11 12:56:55;;;;;;;23.23;13.53;;;4.70;99.90;;;;;;6340610;22;20527;-92
2023/03/11 12:59:54;;;;;;;7.07;5.00;;;4.70;99.90;;;;;;6340953;22;20142;-93
2023/03/11 13:02:46;;;;;;;21.40;12.87;;;4.70;99.90;;;;;;6341082;22;20177;-94
2023/03/11 13:05:21;;;;;;;16.50;9.67;;;4.70;99.90;;;;;;6316402;22;20192;-93
2023/03/11 13:07:51;;;;;;;18.50;12.23;;;4.60;99.90;;;;;;6341330;22;20154;-91
2023/03/11 13:10:36;;;;;;;15.17;8.83;;;4.40;99.90;;;;;;6341848;22;20165;-92
2023/03/11 13:13:21;;;;;;;7.97;6.00;;;4.10;1.00;;;;;;6341763;22;20150;-94
2023/03/11 13:15:48;;;;;;;7.40;5.07;;;4.00;1.00;;;;;;6341485;22;20172;-93
2023/03/11 13:18:22;;;;;;;18.13;10.20;;;4.00;1.00;;;;;;6341622;22;20165;-92
2023/03/11 13:20:57;;;;;;;13.47;9.73;;;4.10;1.00;;;;;;6343172;22;20153;-93
2023/03/11 13:23:30;;;;;;;12.10;7.83;;;4.20;1.00;;;;;;6342485;22;20157;-93
2023/03/11 13:26:16;;;;;;;11.40;7.00;;;4.10;1.00;;;;;;6341257;22;20158;-91
2023/03/11 13:29:09;;;;;;;7.63;4.80;;;4.10;1.00;;;;;;6341515;22;20151;-91
2023/03/11 13:31:49;;;;;;;11.33;8.20;;;4.00;1.00;;;;;;6341412;22;20152;-92